Time;durP1;ratioP1;P1;durP2;ratioP2;P2;SDS_P1;SDS_P2;PMS_P1;PMS_P2;Temp;Humidity;BMP_temperature;BMP_pressure;BME280_temperature;BME280_humidity;BME280_pressure;Samples;Min_cycle;Max_cycle;Signal;HPM_P1;HPM_P2
2023/09/05 00:01:33;;;;;;;5.97;4.23;;;17.70;99.90;;;;;;5241766;28;20443;-43
2023/09/05 00:04:04;;;;;;;7.30;5.40;;;17.70;99.90;;;;;;5246650;28;20518;-43
2023/09/05 00:06:36;;;;;;;7.50;5.27;;;17.70;99.90;;;;;;5242918;28;20201;-44
2023/09/05 00:09:07;;;;;;;5.30;4.90;;;17.60;99.90;;;;;;5247770;28;20206;-43
2023/09/05 00:11:38;;;;;;;6.33;4.47;;;17.60;99.90;;;;;;5242804;28;20448;-43
2023/09/05 00:14:10;;;;;;;5.40;4.57;;;17.60;99.90;;;;;;5233231;28;20642;-43
2023/09/05 00:16:41;;;;;;;5.60;4.73;;;17.60;99.90;;;;;;5234012;28;20440;-46
2023/09/05 00:19:12;;;;;;;12.20;5.00;;;17.60;99.90;;;;;;5242374;28;20457;-43
2023/09/05 00:21:43;;;;;;;5.60;4.20;;;17.60;99.90;;;;;;5239859;28;20266;-44
2023/09/05 00:24:31;;;;;;;8.03;4.70;;;17.60;99.90;;;;;;5241224;28;20520;-44
2023/09/05 00:27:05;;;;;;;7.23;4.93;;;17.60;99.90;;;;;;5239548;28;20694;-43
2023/09/05 00:29:36;;;;;;;5.60;5.00;;;17.60;99.90;;;;;;5250630;28;20460;-43
2023/09/05 00:32:07;;;;;;;4.87;4.43;;;17.50;99.90;;;;;;5240932;28;21148;-43
2023/09/05 00:34:38;;;;;;;6.97;4.30;;;17.50;99.90;;;;;;5241985;28;20296;-43
2023/09/05 00:37:09;;;;;;;4.13;3.70;;;17.50;99.90;;;;;;5243625;28;20455;-44
2023/09/05 00:39:44;;;;;;;10.37;3.90;;;17.50;99.90;;;;;;5236166;28;20453;-44
2023/09/05 00:42:15;;;;;;;5.47;4.80;;;17.50;99.90;;;;;;5242137;28;20445;-43
2023/09/05 00:44:49;;;;;;;4.63;4.23;;;17.40;99.90;;;;;;5248637;28;20413;-42
2023/09/05 00:47:22;;;;;;;4.40;4.10;;;17.40;99.90;;;;;;5246405;28;20468;-42
2023/09/05 00:49:53;;;;;;;4.27;3.90;;;17.40;99.90;;;;;;5243899;28;22145;-45
2023/09/05 00:52:25;;;;;;;3.90;3.60;;;17.40;99.90;;;;;;5244497;28;20432;-44
2023/09/05 00:54:56;;;;;;;4.97;4.03;;;17.40;99.90;;;;;;5223193;28;20193;-44
2023/09/05 00:57:27;;;;;;;4.83;4.30;;;17.30;99.90;;;;;;5244205;28;20508;-44
2023/09/05 00:59:58;;;;;;;4.63;4.23;;;17.30;99.90;;;;;;5244368;28;20305;-44
2023/09/05 01:02:28;;;;;;;5.07;3.47;;;17.30;99.90;;;;;;5246620;28;20516;-42
2023/09/05 01:04:59;;;;;;;4.53;4.23;;;17.20;99.90;;;;;;5250208;28;20303;-43
2023/09/05 01:08:01;;;;;;;3.43;3.20;;;17.20;99.90;;;;;;5240923;28;20231;-43
2023/09/05 01:10:53;;;;;;;5.93;4.10;;;17.20;99.90;;;;;;5236672;28;20217;-46
2023/09/05 01:13:25;;;;;;;4.93;3.90;;;17.20;99.90;;;;;;5243538;28;20420;-42
2023/09/05 01:15:56;;;;;;;7.40;5.10;;;17.20;99.90;;;;;;5243443;28;20425;-43
2023/09/05 01:18:28;;;;;;;5.00;4.60;;;17.10;99.90;;;;;;5238179;28;20983;-43
2023/09/05 01:21:16;;;;;;;11.23;4.60;;;17.10;99.90;;;;;;5235978;28;20170;-44
2023/09/05 01:24:16;;;;;;;4.13;3.93;;;17.10;99.90;;;;;;5245145;28;20455;-44
2023/09/05 01:26:51;;;;;;;7.73;4.30;;;17.10;99.90;;;;;;5236379;28;20436;-43
2023/09/05 01:29:30;;;;;;;4.53;4.20;;;17.20;99.90;;;;;;5243716;28;20448;-43
2023/09/05 01:32:02;;;;;;;4.97;3.80;;;17.10;99.90;;;;;;5243408;28;20511;-43
2023/09/05 01:34:32;;;;;;;5.10;4.57;;;17.20;99.90;;;;;;5241622;28;20429;-43
2023/09/05 01:37:03;;;;;;;4.30;4.00;;;17.20;99.90;;;;;;5242025;28;20431;-43
2023/09/05 01:39:34;;;;;;;7.17;4.30;;;17.20;99.90;;;;;;5241275;28;20692;-42
2023/09/05 01:42:05;;;;;;;4.20;3.90;;;17.20;99.90;;;;;;5241295;28;20190;-43
2023/09/05 01:44:36;;;;;;;8.53;4.17;;;17.30;99.90;;;;;;5238692;28;20183;-44
2023/09/05 01:47:07;;;;;;;4.07;3.77;;;17.20;99.90;;;;;;5244773;28;20182;-43
2023/09/05 01:49:37;;;;;;;4.57;4.17;;;17.20;99.90;;;;;;5240683;28;20514;-43
2023/09/05 01:52:08;;;;;;;3.47;3.30;;;17.20;99.90;;;;;;5235981;28;20218;-43
2023/09/05 01:54:40;;;;;;;5.57;5.03;;;17.10;99.90;;;;;;5239868;28;20179;-43
2023/09/05 01:57:11;;;;;;;4.47;4.13;;;17.10;99.90;;;;;;5233129;28;20270;-46
2023/09/05 01:59:41;;;;;;;3.93;3.50;;;17.00;99.90;;;;;;5248585;28;20960;-46
2023/09/05 02:02:12;;;;;;;4.27;3.30;;;17.00;99.90;;;;;;5243017;28;20273;-44
2023/09/05 02:04:42;;;;;;;4.90;3.80;;;17.00;99.90;;;;;;5238304;28;20677;-45
2023/09/05 02:07:13;;;;;;;4.13;3.77;;;17.00;99.90;;;;;;5234320;28;20678;-44
2023/09/05 02:09:44;;;;;;;6.13;4.27;;;17.00;99.90;;;;;;5238301;28;20207;-44
2023/09/05 02:12:14;;;;;;;7.00;3.50;;;17.00;99.90;;;;;;5235426;28;20655;-43
2023/09/05 02:14:47;;;;;;;6.40;4.13;;;17.00;99.90;;;;;;5241194;28;20197;-43
2023/09/05 02:17:20;;;;;;;4.73;3.70;;;17.00;99.90;;;;;;5241732;28;20186;-44
2023/09/05 02:19:51;;;;;;;4.73;3.83;;;16.90;99.90;;;;;;5246411;28;20469;-45
2023/09/05 02:22:21;;;;;;;4.30;3.80;;;16.90;99.90;;;;;;5241579;28;20444;-44
2023/09/05 02:24:52;;;;;;;3.77;3.57;;;16.90;99.90;;;;;;5234399;28;20190;-43
2023/09/05 02:27:22;;;;;;;3.40;3.20;;;16.90;99.90;;;;;;5242129;28;20240;-44
2023/09/05 02:29:56;;;;;;;4.47;3.63;;;16.90;99.90;;;;;;5245561;28;20209;-44
2023/09/05 02:32:30;;;;;;;3.97;3.10;;;16.90;99.90;;;;;;5243746;28;20179;-43
2023/09/05 02:35:01;;;;;;;4.40;3.27;;;16.90;99.90;;;;;;5244514;28;20450;-44
2023/09/05 02:37:32;;;;;;;3.53;3.30;;;16.90;99.90;;;;;;5240892;28;20838;-44
2023/09/05 02:40:03;;;;;;;3.27;3.07;;;16.90;99.90;;;;;;5243438;28;20539;-44
2023/09/05 02:42:34;;;;;;;4.00;3.67;;;16.90;99.90;;;;;;5236195;28;20187;-43
2023/09/05 02:45:05;;;;;;;3.47;2.80;;;16.80;99.90;;;;;;5236734;28;20420;-45
2023/09/05 02:47:35;;;;;;;5.03;3.73;;;16.80;99.90;;;;;;5244784;28;20274;-43
2023/09/05 02:50:07;;;;;;;7.23;3.83;;;16.80;99.90;;;;;;5245816;28;20472;-44
2023/09/05 02:52:37;;;;;;;6.00;3.00;;;16.80;99.90;;;;;;5241681;28;20178;-46
2023/09/05 02:55:08;;;;;;;6.17;3.20;;;16.80;99.90;;;;;;5234099;28;20428;-43
2023/09/05 02:57:39;;;;;;;3.60;3.30;;;16.90;99.90;;;;;;5243679;28;20213;-44
2023/09/05 03:00:10;;;;;;;4.50;3.30;;;16.90;99.90;;;;;;5235195;28;20218;-43
2023/09/05 03:02:42;;;;;;;4.73;2.90;;;16.90;99.90;;;;;;5236859;28;20189;-43
2023/09/05 03:05:13;;;;;;;3.10;3.00;;;16.90;99.90;;;;;;5234325;28;20493;-45
2023/09/05 03:07:45;;;;;;;3.97;3.03;;;16.90;99.90;;;;;;5245011;28;20436;-45
2023/09/05 03:10:16;;;;;;;3.50;3.30;;;16.90;99.90;;;;;;5239345;28;20551;-44
2023/09/05 03:12:46;;;;;;;2.90;2.70;;;16.90;99.90;;;;;;5238361;28;20879;-47
2023/09/05 03:15:20;;;;;;;2.63;2.50;;;16.90;99.90;;;;;;5245782;28;20195;-44
2023/09/05 03:17:51;;;;;;;3.60;3.30;;;17.00;99.90;;;;;;5244928;28;20185;-43
2023/09/05 03:20:25;;;;;;;3.67;3.47;;;16.90;99.90;;;;;;5243424;28;20516;-43
2023/09/05 03:22:56;;;;;;;3.20;3.00;;;16.90;99.90;;;;;;5241418;28;20200;-44
2023/09/05 03:25:27;;;;;;;12.73;3.20;;;16.90;99.90;;;;;;5240516;28;20445;-44
2023/09/05 03:27:57;;;;;;;4.73;3.60;;;16.90;99.90;;;;;;5220113;28;20320;-45
2023/09/05 03:30:28;;;;;;;6.90;3.60;;;16.90;99.90;;;;;;5241607;28;20241;-46
2023/09/05 03:32:59;;;;;;;4.93;3.27;;;16.90;99.90;;;;;;5243981;28;20182;-43
2023/09/05 03:35:29;;;;;;;4.97;3.43;;;16.80;99.90;;;;;;5243862;28;20320;-44
2023/09/05 03:38:01;;;;;;;3.97;3.73;;;16.80;99.90;;;;;;5236827;28;20544;-42
2023/09/05 03:40:32;;;;;;;3.50;3.30;;;16.70;99.90;;;;;;5237943;28;20179;-44
2023/09/05 03:43:02;;;;;;;4.30;3.20;;;16.70;99.90;;;;;;5238693;28;20462;-45
2023/09/05 03:45:33;;;;;;;4.03;3.73;;;16.70;99.90;;;;;;5246940;28;20519;-43
2023/09/05 03:48:04;;;;;;;4.40;3.50;;;16.70;99.90;;;;;;5235636;28;20289;-43
2023/09/05 03:50:35;;;;;;;3.17;2.97;;;16.70;99.90;;;;;;5242837;28;20211;-43
2023/09/05 03:53:05;;;;;;;3.77;3.47;;;16.70;99.90;;;;;;5239297;28;20179;-44
2023/09/05 03:55:36;;;;;;;4.00;3.50;;;16.60;99.90;;;;;;5241401;28;20190;-43
2023/09/05 03:58:07;;;;;;;3.83;3.40;;;16.60;99.90;;;;;;5250358;28;20869;-44
2023/09/05 04:00:37;;;;;;;3.93;3.73;;;16.60;99.90;;;;;;5248370;28;20190;-43
2023/09/05 04:03:10;;;;;;;4.50;3.47;;;16.60;99.90;;;;;;5246116;28;20193;-43
2023/09/05 04:05:41;;;;;;;3.70;3.50;;;16.60;99.90;;;;;;5242817;28;20190;-45
2023/09/05 04:08:12;;;;;;;3.77;3.40;;;16.60;99.90;;;;;;5238645;28;20560;-45
2023/09/05 04:10:42;;;;;;;3.53;3.23;;;16.60;99.90;;;;;;5246422;28;20581;-44
2023/09/05 04:13:13;;;;;;;14.10;4.00;;;16.60;99.90;;;;;;5234600;28;20183;-44
2023/09/05 04:15:44;;;;;;;3.40;3.10;;;16.60;99.90;;;;;;5237356;28;20212;-44
2023/09/05 04:18:14;;;;;;;4.13;3.20;;;16.60;99.90;;;;;;5244569;28;20290;-44
2023/09/05 04:20:45;;;;;;;4.87;3.57;;;16.60;99.90;;;;;;5236667;28;20592;-44
2023/09/05 04:23:16;;;;;;;4.03;3.37;;;16.60;99.90;;;;;;5238073;28;20290;-44
2023/09/05 04:25:54;;;;;;;4.50;3.53;;;16.60;99.90;;;;;;5233491;28;20308;-43
2023/09/05 04:28:25;;;;;;;3.33;3.03;;;16.60;99.90;;;;;;5233830;28;20203;-45
2023/09/05 04:31:01;;;;;;;3.70;3.50;;;16.60;99.90;;;;;;5235965;28;20460;-44
2023/09/05 04:33:36;;;;;;;3.60;3.40;;;16.50;99.90;;;;;;5238940;28;20440;-43
2023/09/05 04:36:08;;;;;;;3.63;3.33;;;16.60;99.90;;;;;;5244518;28;20427;-44
2023/09/05 04:38:42;;;;;;;3.90;3.60;;;16.50;99.90;;;;;;5244666;28;20483;-43
2023/09/05 04:41:13;;;;;;;3.27;3.13;;;16.50;99.90;;;;;;5245439;28;20439;-44
2023/09/05 04:43:44;;;;;;;4.77;4.00;;;16.60;99.90;;;;;;5235276;28;20441;-43
2023/09/05 04:46:15;;;;;;;4.53;4.23;;;16.60;99.90;;;;;;5238840;28;20468;-42
2023/09/05 04:48:46;;;;;;;4.87;3.60;;;16.60;99.90;;;;;;5242383;28;20236;-44
2023/09/05 04:51:16;;;;;;;4.47;3.40;;;16.60;99.90;;;;;;5237730;28;20678;-43
2023/09/05 04:53:47;;;;;;;4.77;3.93;;;16.60;99.90;;;;;;5239016;28;20178;-44
2023/09/05 04:56:19;;;;;;;4.17;3.87;;;16.60;99.90;;;;;;5246885;28;20189;-43
2023/09/05 04:58:51;;;;;;;4.40;3.27;;;16.70;99.90;;;;;;5232762;28;20238;-44
2023/09/05 05:01:22;;;;;;;3.67;3.30;;;16.70;99.90;;;;;;5236012;28;21018;-44
2023/09/05 05:03:52;;;;;;;4.87;4.23;;;16.70;99.90;;;;;;5233789;28;20476;-44
2023/09/05 05:06:28;;;;;;;8.93;5.20;;;16.70;99.90;;;;;;5234736;28;20208;-46
2023/09/05 05:08:59;;;;;;;6.47;4.17;;;16.90;99.90;;;;;;5241989;28;20228;-46
2023/09/05 05:11:29;;;;;;;4.63;4.23;;;17.00;99.90;;;;;;5235142;28;20472;-46
2023/09/05 05:14:01;;;;;;;4.07;3.87;;;17.20;99.90;;;;;;5243148;28;20198;-45
2023/09/05 05:16:31;;;;;;;4.27;3.90;;;17.40;99.90;;;;;;5244755;28;20574;-46
2023/09/05 05:19:03;;;;;;;12.10;4.00;;;17.40;99.90;;;;;;5239998;28;20453;-45
2023/09/05 05:21:33;;;;;;;4.67;3.67;;;17.50;99.90;;;;;;5241960;28;20241;-45
2023/09/05 05:24:06;;;;;;;5.30;4.00;;;17.50;99.90;;;;;;5240233;28;20445;-45
2023/09/05 05:26:37;;;;;;;3.40;3.30;;;17.50;99.90;;;;;;5238656;28;20210;-45
2023/09/05 05:29:07;;;;;;;4.00;3.00;;;17.60;99.90;;;;;;5244349;28;20502;-44
2023/09/05 05:31:41;;;;;;;5.17;3.30;;;17.80;99.90;;;;;;5241887;28;20276;-45
2023/09/05 05:34:12;;;;;;;3.10;2.90;;;17.90;99.90;;;;;;5234568;28;20278;-45
2023/09/05 05:36:43;;;;;;;5.50;4.10;;;18.10;99.90;;;;;;5236555;28;20992;-46
2023/09/05 05:39:13;;;;;;;4.03;3.23;;;18.30;99.90;;;;;;5228977;28;20203;-46
2023/09/05 05:41:44;;;;;;;3.47;3.17;;;18.40;99.90;;;;;;5230122;28;20201;-45
2023/09/05 05:44:15;;;;;;;5.10;3.53;;;18.60;99.90;;;;;;5233992;28;20277;-53
2023/09/05 05:46:46;;;;;;;3.40;3.20;;;18.70;99.90;;;;;;5243520;28;20179;-45
2023/09/05 05:49:16;;;;;;;3.43;2.87;;;18.90;99.90;;;;;;5233578;28;20473;-45
2023/09/05 05:51:47;;;;;;;10.63;3.70;;;19.10;99.90;;;;;;5231012;28;20260;-47
2023/09/05 05:54:18;;;;;;;4.27;3.03;;;19.80;99.90;;;;;;5229290;28;20194;-45
2023/09/05 05:56:50;;;;;;;3.83;2.57;;;21.20;99.90;;;;;;5228084;28;20730;-46
2023/09/05 05:59:22;;;;;;;4.43;3.03;;;23.10;99.90;;;;;;5230763;28;20243;-45
2023/09/05 06:01:53;;;;;;;3.20;2.87;;;24.20;99.90;;;;;;5230709;28;21011;-46
2023/09/05 06:04:24;;;;;;;4.93;3.03;;;24.90;99.90;;;;;;5238119;28;20594;-45
2023/09/05 06:06:55;;;;;;;3.27;2.97;;;26.50;93.90;;;;;;5233657;28;20921;-47
2023/09/05 06:09:26;;;;;;;4.40;2.80;;;27.90;84.10;;;;;;5234929;28;20209;-45
2023/09/05 06:11:59;;;;;;;2.83;2.60;;;28.30;74.80;;;;;;5227132;28;20600;-45
2023/09/05 06:14:29;;;;;;;2.97;2.80;;;28.40;71.70;;;;;;5238718;28;20480;-46
2023/09/05 06:17:00;;;;;;;4.73;3.23;;;29.40;66.00;;;;;;5234372;28;20432;-45
2023/09/05 06:19:30;;;;;;;4.27;2.17;;;30.40;60.50;;;;;;5215168;28;20305;-46
2023/09/05 06:22:01;;;;;;;4.20;3.20;;;30.90;56.20;;;;;;5239777;28;20265;-47
2023/09/05 06:24:32;;;;;;;5.40;2.90;;;31.00;54.80;;;;;;5229687;28;20220;-46
2023/09/05 06:27:02;;;;;;;2.90;2.33;;;31.60;53.10;;;;;;5238579;28;20178;-45
2023/09/05 06:29:33;;;;;;;3.53;2.33;;;32.00;51.70;;;;;;5227833;28;20198;-46
2023/09/05 06:32:04;;;;;;;10.57;2.90;;;33.00;49.70;;;;;;5228822;28;20185;-46
2023/09/05 06:34:35;;;;;;;2.37;2.27;;;34.30;46.30;;;;;;5227913;28;20190;-44
2023/09/05 06:37:05;;;;;;;6.73;2.20;;;35.70;42.10;;;;;;5233301;28;20924;-43
2023/09/05 06:39:36;;;;;;;6.80;2.23;;;36.20;40.40;;;;;;5237288;28;20198;-44
2023/09/05 06:42:08;;;;;;;3.00;2.80;;;36.50;38.70;;;;;;5235043;28;20190;-46
2023/09/05 06:44:40;;;;;;;3.43;2.30;;;35.70;38.70;;;;;;5240239;28;20537;-45
2023/09/05 06:47:10;;;;;;;4.60;2.70;;;34.50;39.90;;;;;;5237162;28;20839;-45
2023/09/05 06:49:41;;;;;;;2.30;2.20;;;34.00;41.20;;;;;;5233908;28;20552;-44
2023/09/05 06:52:12;;;;;;;1.90;1.80;;;34.20;40.80;;;;;;5234470;28;20186;-45
2023/09/05 06:54:42;;;;;;;2.80;2.20;;;33.30;40.50;;;;;;5234956;28;20182;-47
2023/09/05 06:57:13;;;;;;;5.63;3.17;;;33.40;41.80;;;;;;5235141;28;20178;-46
2023/09/05 06:59:44;;;;;;;2.70;2.50;;;34.20;40.50;;;;;;5230831;28;20248;-45
2023/09/05 07:02:15;;;;;;;3.00;2.07;;;33.90;40.40;;;;;;5230968;28;20194;-46
2023/09/05 07:04:45;;;;;;;4.63;2.40;;;33.10;41.90;;;;;;5236876;28;20185;-46
2023/09/05 07:07:16;;;;;;;2.83;1.90;;;34.30;40.60;;;;;;5236988;28;20552;-43
2023/09/05 07:09:47;;;;;;;2.43;1.90;;;35.90;39.30;;;;;;5232681;28;20216;-45
2023/09/05 07:12:17;;;;;;;3.27;2.43;;;37.30;36.00;;;;;;5229525;28;20202;-43
2023/09/05 07:14:49;;;;;;;8.97;2.07;;;38.00;35.00;;;;;;5244282;28;20177;-44
2023/09/05 07:17:19;;;;;;;2.47;2.27;;;38.30;33.80;;;;;;5243321;28;20182;-45
2023/09/05 07:19:50;;;;;;;2.33;2.20;;;38.00;33.70;;;;;;5245050;28;20210;-43
2023/09/05 07:22:22;;;;;;;2.23;2.10;;;37.30;34.30;;;;;;5243358;28;20185;-43
2023/09/05 07:24:52;;;;;;;7.63;2.50;;;36.90;34.60;;;;;;5240179;28;20205;-44
2023/09/05 07:27:23;;;;;;;3.33;1.92;;;37.60;34.60;;;;;;5240776;28;20662;-44
2023/09/05 07:29:54;;;;;;;1.77;1.73;;;38.30;32.90;;;;;;5244055;28;20224;-45
2023/09/05 07:32:24;;;;;;;1.75;1.75;;;38.80;32.40;;;;;;5251221;28;20185;-47
2023/09/05 07:34:55;;;;;;;1.55;1.50;;;39.10;31.60;;;;;;5245004;28;20641;-44
2023/09/05 07:37:26;;;;;;;4.27;2.50;;;38.50;31.80;;;;;;5246746;28;20605;-44
2023/09/05 07:39:56;;;;;;;2.40;2.20;;;37.40;32.70;;;;;;5233700;28;20222;-46
2023/09/05 07:42:27;;;;;;;2.00;1.90;;;35.80;34.30;;;;;;5239794;28;20273;-47
2023/09/05 07:44:58;;;;;;;7.23;1.97;;;34.90;35.50;;;;;;5239571;28;20186;-46
2023/09/05 07:47:29;;;;;;;2.13;1.93;;;34.80;36.50;;;;;;5237418;28;20203;-49
2023/09/05 07:50:01;;;;;;;2.73;2.10;;;34.80;36.20;;;;;;5238653;28;20696;-46
2023/09/05 07:52:33;;;;;;;2.70;1.60;;;34.30;36.90;;;;;;5220692;28;20205;-46
2023/09/05 07:55:04;;;;;;;3.50;2.33;;;34.30;37.40;;;;;;5240024;28;20189;-45
2023/09/05 07:57:36;;;;;;;1.80;1.70;;;34.40;37.00;;;;;;5234968;28;20435;-46
2023/09/05 08:00:11;;;;;;;2.27;1.93;;;35.00;36.10;;;;;;5236348;28;20206;-45
2023/09/05 08:02:42;;;;;;;7.30;2.00;;;35.60;35.50;;;;;;5231756;28;20193;-45
2023/09/05 08:05:13;;;;;;;1.83;1.80;;;35.40;35.50;;;;;;5231261;28;20178;-46
2023/09/05 08:07:44;;;;;;;8.60;2.00;;;35.10;36.10;;;;;;5240386;28;20929;-45
2023/09/05 08:10:14;;;;;;;2.50;2.30;;;35.80;35.50;;;;;;5252111;28;20475;-46
2023/09/05 08:12:45;;;;;;;7.70;2.20;;;36.10;35.10;;;;;;5241637;28;20657;-44
2023/09/05 08:15:17;;;;;;;2.20;2.10;;;36.40;35.00;;;;;;5253510;28;20320;-46
2023/09/05 08:17:48;;;;;;;4.13;2.13;;;35.70;35.40;;;;;;5230072;28;20189;-46
2023/09/05 08:20:21;;;;;;;3.37;2.50;;;34.90;36.30;;;;;;5233383;28;20179;-46
2023/09/05 08:22:52;;;;;;;1.90;1.80;;;33.60;38.60;;;;;;5221276;28;20190;-44
2023/09/05 08:25:24;;;;;;;5.33;1.93;;;32.90;40.10;;;;;;5237081;28;20186;-47
2023/09/05 08:27:55;;;;;;;7.90;2.10;;;32.30;41.40;;;;;;5239092;28;20658;-46
2023/09/05 08:30:28;;;;;;;1.83;1.73;;;31.70;42.10;;;;;;5232603;28;20468;-46
2023/09/05 08:33:01;;;;;;;4.93;1.90;;;30.80;43.10;;;;;;5234917;28;20569;-45
2023/09/05 08:35:32;;;;;;;1.97;1.87;;;30.30;44.50;;;;;;5234282;28;20966;-46
2023/09/05 08:38:05;;;;;;;4.90;1.73;;;29.80;45.00;;;;;;5239503;28;20460;-46
2023/09/05 08:40:36;;;;;;;5.50;1.90;;;29.40;46.50;;;;;;5240878;28;20175;-46
2023/09/05 08:43:06;;;;;;;5.30;1.60;;;28.60;46.60;;;;;;5240019;28;20434;-44
2023/09/05 08:45:43;;;;;;;4.73;1.63;;;28.10;47.70;;;;;;5215609;28;20543;-45
2023/09/05 08:48:13;;;;;;;1.73;1.57;;;27.70;48.50;;;;;;5238253;28;20222;-44
2023/09/05 08:50:44;;;;;;;1.83;1.73;;;27.30;49.60;;;;;;5243760;28;20549;-46
2023/09/05 08:53:17;;;;;;;2.23;1.80;;;26.90;50.20;;;;;;5240115;28;20194;-46
2023/09/05 08:55:48;;;;;;;7.80;2.27;;;26.40;51.30;;;;;;5242858;28;20252;-44
2023/09/05 08:58:20;;;;;;;2.10;2.00;;;26.00;52.00;;;;;;5238630;28;20464;-45
2023/09/05 09:00:51;;;;;;;2.50;2.30;;;25.90;52.80;;;;;;5231304;28;20800;-47
2023/09/05 09:03:22;;;;;;;2.40;1.33;;;25.70;53.00;;;;;;5233250;28;20452;-46
2023/09/05 09:05:53;;;;;;;1.63;1.63;;;25.40;53.10;;;;;;5244483;28;20308;-46
2023/09/05 09:08:23;;;;;;;2.77;1.63;;;25.20;53.10;;;;;;5242376;28;20527;-44
2023/09/05 09:11:05;;;;;;;1.70;1.60;;;25.10;53.80;;;;;;5239727;28;20213;-44
2023/09/05 09:13:40;;;;;;;3.30;1.60;;;25.20;53.90;;;;;;5237095;28;20261;-45
2023/09/05 09:16:17;;;;;;;2.10;2.00;;;25.20;54.20;;;;;;5235841;28;20758;-45
2023/09/05 09:19:03;;;;;;;1.30;1.30;;;25.30;53.90;;;;;;5236125;28;20497;-44
2023/09/05 09:21:35;;;;;;;2.20;1.50;;;25.40;53.90;;;;;;5242855;28;20559;-43
2023/09/05 09:24:08;;;;;;;1.47;1.37;;;25.40;53.60;;;;;;5232737;28;21205;-45
2023/09/05 09:26:39;;;;;;;1.20;1.20;;;25.40;53.10;;;;;;5239276;28;20432;-45
2023/09/05 09:29:10;;;;;;;2.37;2.27;;;25.30;53.20;;;;;;5234316;28;20539;-45
2023/09/05 09:31:43;;;;;;;4.00;2.23;;;25.40;53.50;;;;;;5239941;28;20241;-44
2023/09/05 09:34:19;;;;;;;1.60;1.50;;;25.50;52.90;;;;;;5242019;28;20205;-44
2023/09/05 09:36:53;;;;;;;1.00;1.00;;;25.40;52.90;;;;;;5242245;28;20909;-44
2023/09/05 09:39:25;;;;;;;2.00;1.67;;;25.40;53.50;;;;;;5238284;28;20563;-44
2023/09/05 09:42:00;;;;;;;5.80;1.80;;;25.60;53.30;;;;;;5239452;28;20437;-45
2023/09/05 09:44:33;;;;;;;1.90;1.67;;;25.60;53.10;;;;;;5242405;28;20498;-44
2023/09/05 09:47:04;;;;;;;1.13;1.13;;;25.70;53.00;;;;;;5237178;28;20433;-44
2023/09/05 09:49:40;;;;;;;1.87;1.77;;;25.60;53.40;;;;;;5235156;28;20449;-45
2023/09/05 09:52:14;;;;;;;1.93;1.43;;;25.70;53.80;;;;;;5239961;28;20219;-45
2023/09/05 09:54:46;;;;;;;1.30;1.27;;;25.60;53.80;;;;;;5240431;28;20429;-43
2023/09/05 09:57:34;;;;;;;1.60;1.17;;;25.80;53.80;;;;;;5230944;28;20494;-45
2023/09/05 10:00:15;;;;;;;3.50;1.40;;;25.70;53.70;;;;;;5240622;28;20467;-45
2023/09/05 10:02:46;;;;;;;6.67;1.53;;;25.70;53.80;;;;;;5233482;28;20975;-43
2023/09/05 10:05:21;;;;;;;1.83;1.73;;;25.90;53.60;;;;;;5235791;28;20448;-45
2023/09/05 10:07:54;;;;;;;1.57;1.33;;;25.80;53.70;;;;;;5242959;28;20439;-45
2023/09/05 10:10:27;;;;;;;1.17;1.00;;;25.90;53.90;;;;;;5235976;28;21121;-46
2023/09/05 10:13:00;;;;;;;6.27;2.07;;;25.90;53.10;;;;;;5231191;28;20460;-44
2023/09/05 10:15:32;;;;;;;1.33;1.20;;;25.80;53.00;;;;;;5232102;28;22027;-45
2023/09/05 10:18:04;;;;;;;1.47;1.13;;;25.90;52.90;;;;;;5234861;28;20461;-44
2023/09/05 10:20:37;;;;;;;1.90;1.57;;;25.90;53.20;;;;;;5233536;28;20451;-44
2023/09/05 10:23:08;;;;;;;1.43;1.43;;;26.00;53.30;;;;;;5233987;28;20453;-44
2023/09/05 10:25:40;;;;;;;1.67;1.50;;;26.00;52.70;;;;;;5237796;28;20432;-44
2023/09/05 10:28:11;;;;;;;4.53;1.17;;;26.00;53.00;;;;;;5240930;28;20535;-47
2023/09/05 10:30:46;;;;;;;2.23;2.13;;;26.00;53.60;;;;;;5232520;28;20471;-45
2023/09/05 10:33:17;;;;;;;2.00;1.90;;;26.10;53.20;;;;;;5235667;28;20658;-44
2023/09/05 10:35:48;;;;;;;2.90;1.30;;;26.30;53.00;;;;;;5240382;28;20524;-45
2023/09/05 10:38:19;;;;;;;2.00;1.90;;;26.20;52.80;;;;;;5231111;28;20458;-44
2023/09/05 10:40:50;;;;;;;3.13;1.20;;;26.30;53.00;;;;;;5237370;28;20195;-46
2023/09/05 10:43:22;;;;;;;1.93;1.37;;;26.20;52.80;;;;;;5237344;28;20436;-43
2023/09/05 10:46:00;;;;;;;2.40;1.60;;;26.10;53.90;;;;;;5232331;28;20438;-43
2023/09/05 10:48:45;;;;;;;1.43;1.33;;;26.10;53.40;;;;;;5231262;28;20485;-44
2023/09/05 10:51:16;;;;;;;5.17;2.03;;;26.20;53.30;;;;;;5239388;28;20460;-43
2023/09/05 10:53:48;;;;;;;4.00;1.70;;;26.30;53.60;;;;;;5242693;28;20428;-44
2023/09/05 10:56:43;;;;;;;1.97;1.83;;;26.40;53.30;;;;;;5242029;28;20193;-44
2023/09/05 10:59:32;;;;;;;1.73;1.63;;;26.50;53.20;;;;;;5237977;28;20468;-43
2023/09/05 11:02:06;;;;;;;10.70;2.30;;;26.30;53.60;;;;;;5235023;28;20752;-44
2023/09/05 11:04:37;;;;;;;5.10;1.53;;;26.40;54.00;;;;;;5237213;28;20519;-44
2023/09/05 11:07:10;;;;;;;1.60;1.50;;;26.40;53.60;;;;;;5234559;28;20460;-44
2023/09/05 11:09:44;;;;;;;2.40;1.33;;;26.30;53.70;;;;;;5238989;28;20975;-44
2023/09/05 11:12:16;;;;;;;1.27;1.00;;;26.40;53.60;;;;;;5238394;28;20449;-45
2023/09/05 11:14:48;;;;;;;3.17;2.00;;;26.30;53.50;;;;;;5238335;28;20523;-45
2023/09/05 11:17:19;;;;;;;1.37;1.33;;;26.30;53.80;;;;;;5237961;28;20429;-46
2023/09/05 11:19:52;;;;;;;1.80;1.70;;;26.30;53.80;;;;;;5235240;28;20480;-44
2023/09/05 11:22:25;;;;;;;1.60;1.60;;;26.40;53.90;;;;;;5235113;28;20425;-46
2023/09/05 11:24:58;;;;;;;1.43;1.33;;;26.50;53.30;;;;;;5228307;28;20444;-47
2023/09/05 11:27:30;;;;;;;2.80;1.60;;;26.40;53.90;;;;;;5233481;28;20944;-44
2023/09/05 11:30:04;;;;;;;1.20;1.10;;;26.40;53.90;;;;;;5230856;28;20972;-44
2023/09/05 11:32:42;;;;;;;2.20;2.10;;;26.50;53.90;;;;;;5237450;28;20451;-42
2023/09/05 11:35:13;;;;;;;2.40;1.53;;;26.60;54.00;;;;;;5238312;28;20448;-45
2023/09/05 11:37:45;;;;;;;2.77;1.40;;;26.50;53.30;;;;;;5232878;28;20425;-45
2023/09/05 11:40:20;;;;;;;1.90;1.30;;;26.40;53.30;;;;;;5238903;28;20498;-44
2023/09/05 11:43:10;;;;;;;2.93;1.17;;;26.30;53.60;;;;;;5236299;28;20462;-44
2023/09/05 11:45:43;;;;;;;1.07;1.07;;;26.30;54.50;;;;;;5254110;28;20444;-47
2023/09/05 11:48:14;;;;;;;2.47;1.53;;;26.40;53.80;;;;;;5237439;28;20832;-44
2023/09/05 11:50:45;;;;;;;1.50;1.40;;;26.50;53.60;;;;;;5233045;28;20475;-44
2023/09/05 11:53:19;;;;;;;1.17;1.17;;;26.40;53.40;;;;;;5236030;28;20440;-45
2023/09/05 11:55:50;;;;;;;1.33;1.13;;;26.50;53.90;;;;;;5237415;28;20442;-45
2023/09/05 11:58:21;;;;;;;1.10;1.10;;;26.70;53.60;;;;;;5240657;28;20464;-44
2023/09/05 12:00:53;;;;;;;1.17;1.17;;;26.70;53.60;;;;;;5236382;28;20293;-46
2023/09/05 12:03:24;;;;;;;1.23;1.23;;;26.70;53.30;;;;;;5236611;28;20185;-44
2023/09/05 12:05:55;;;;;;;1.97;1.50;;;26.90;53.30;;;;;;5232115;28;20448;-44
2023/09/05 12:08:25;;;;;;;3.50;1.53;;;26.90;53.30;;;;;;5236537;28;20272;-44
2023/09/05 12:10:57;;;;;;;0.83;0.83;;;26.90;53.00;;;;;;5234142;28;20217;-44
2023/09/05 12:13:46;;;;;;;0.80;0.80;;;26.90;53.00;;;;;;5239262;28;20190;-45
2023/09/05 12:16:17;;;;;;;1.10;1.10;;;26.90;53.20;;;;;;5236834;28;20435;-45
2023/09/05 12:18:49;;;;;;;1.23;1.20;;;27.10;53.20;;;;;;5244857;28;20451;-46
2023/09/05 12:21:20;;;;;;;1.40;1.30;;;27.00;53.30;;;;;;5235155;28;20522;-44
2023/09/05 12:23:50;;;;;;;1.47;1.37;;;27.00;53.20;;;;;;5234768;28;21006;-44
2023/09/05 12:26:38;;;;;;;1.20;1.20;;;27.10;52.90;;;;;;5240503;28;20191;-48
2023/09/05 12:29:09;;;;;;;4.63;1.23;;;27.10;52.80;;;;;;5235861;28;20233;-43
2023/09/05 12:31:39;;;;;;;3.73;1.40;;;27.10;52.80;;;;;;5238830;28;20460;-43
2023/09/05 12:34:10;;;;;;;3.17;1.00;;;27.10;52.90;;;;;;5234382;28;20178;-44
2023/09/05 12:36:41;;;;;;;1.50;1.40;;;27.00;52.90;;;;;;5233920;28;20198;-44
2023/09/05 12:39:11;;;;;;;4.30;1.60;;;26.90;53.20;;;;;;5243062;28;20199;-44
2023/09/05 12:41:42;;;;;;;3.73;1.30;;;26.90;53.40;;;;;;5240333;28;20269;-44
2023/09/05 12:44:13;;;;;;;0.93;0.93;;;26.90;53.30;;;;;;5232132;28;20182;-44
2023/09/05 12:46:43;;;;;;;1.00;1.00;;;26.90;53.20;;;;;;5232997;28;20647;-45
2023/09/05 12:49:14;;;;;;;1.30;1.30;;;27.10;52.90;;;;;;5235374;28;20194;-46
2023/09/05 12:51:44;;;;;;;2.00;1.40;;;27.20;52.70;;;;;;5228987;28;20546;-44
2023/09/05 12:54:15;;;;;;;1.60;1.50;;;27.20;52.10;;;;;;5231936;28;20186;-43
2023/09/05 12:56:47;;;;;;;1.80;1.40;;;27.10;52.10;;;;;;5233971;28;20518;-45
2023/09/05 12:59:21;;;;;;;1.63;1.20;;;26.90;52.80;;;;;;5232091;28;20210;-44
2023/09/05 13:01:53;;;;;;;1.83;1.17;;;26.80;52.70;;;;;;5236763;28;21014;-45
2023/09/05 13:04:23;;;;;;;1.00;0.93;;;27.00;52.90;;;;;;5236552;28;20441;-43
2023/09/05 13:06:54;;;;;;;1.37;1.37;;;27.00;52.80;;;;;;5237338;28;20444;-43
2023/09/05 13:09:24;;;;;;;1.13;1.13;;;27.20;52.60;;;;;;5237899;28;20206;-45
2023/09/05 13:11:55;;;;;;;4.57;1.60;;;27.30;52.60;;;;;;5243624;28;20580;-44